sensor_id;sensor_type;location;lat;lon;timestamp;pressure;altitude;pressure_sealevel;temperature;humidity
84781;BME280;75011;50.086;19.886;2024-02-21T00:02:23;99555.78;;;3.94;84.96
84781;BME280;75011;50.086;19.886;2024-02-21T00:05:24;99552.91;;;3.89;84.95
84781;BME280;75011;50.086;19.886;2024-02-21T00:08:25;99554.69;;;3.82;85.21
84781;BME280;75011;50.086;19.886;2024-02-21T00:11:25;99559.75;;;3.70;85.55
84781;BME280;75011;50.086;19.886;2024-02-21T00:14:26;99556.56;;;3.60;85.62
84781;BME280;75011;50.086;19.886;2024-02-21T00:17:26;99559.56;;;3.51;85.65
84781;BME280;75011;50.086;19.886;2024-02-21T00:20:28;99569.78;;;3.47;85.98
84781;BME280;75011;50.086;19.886;2024-02-21T00:23:29;99563.19;;;3.43;85.88
84781;BME280;75011;50.086;19.886;2024-02-21T00:26:29;99568.75;;;3.48;86.49
84781;BME280;75011;50.086;19.886;2024-02-21T00:29:30;99561.72;;;3.62;86.50
84781;BME280;75011;50.086;19.886;2024-02-21T00:32:30;99555.59;;;3.68;86.93
84781;BME280;75011;50.086;19.886;2024-02-21T00:35:32;99550.34;;;3.74;86.50
84781;BME280;75011;50.086;19.886;2024-02-21T00:38:32;99541.78;;;3.79;86.51
84781;BME280;75011;50.086;19.886;2024-02-21T00:41:33;99540.97;;;3.78;86.65
84781;BME280;75011;50.086;19.886;2024-02-21T00:44:33;99545.66;;;3.76;86.53
84781;BME280;75011;50.086;19.886;2024-02-21T00:47:34;99543.84;;;3.77;86.85
84781;BME280;75011;50.086;19.886;2024-02-21T00:50:36;99543.84;;;3.77;87.20
84781;BME280;75011;50.086;19.886;2024-02-21T00:53:36;99543.84;;;3.77;87.30
84781;BME280;75011;50.086;19.886;2024-02-21T00:56:37;99535.28;;;3.81;87.19
84781;BME280;75011;50.086;19.886;2024-02-21T00:59:37;99527.13;;;3.83;87.39
84781;BME280;75011;50.086;19.886;2024-02-21T01:02:38;99533.06;;;3.85;87.49
84781;BME280;75011;50.086;19.886;2024-02-21T01:05:40;99526.91;;;3.85;87.48
84781;BME280;75011;50.086;19.886;2024-02-21T01:08:41;99515.22;;;3.79;87.63
84781;BME280;75011;50.086;19.886;2024-02-21T01:11:42;99518.94;;;3.85;87.81
84781;BME280;75011;50.086;19.886;2024-02-21T01:14:42;99520.16;;;3.82;87.73
84781;BME280;75011;50.086;19.886;2024-02-21T01:17:43;99527.34;;;3.88;88.13
84781;BME280;75011;50.086;19.886;2024-02-21T01:20:44;99519.75;;;3.85;88.17
84781;BME280;75011;50.086;19.886;2024-02-21T01:23:45;99522.59;;;3.83;88.14
84781;BME280;75011;50.086;19.886;2024-02-21T01:26:45;99521.81;;;3.83;88.38
84781;BME280;75011;50.086;19.886;2024-02-21T01:29:46;99512.38;;;3.80;88.46
84781;BME280;75011;50.086;19.886;2024-02-21T01:32:46;99511.72;;;3.78;88.30
84781;BME280;75011;50.086;19.886;2024-02-21T01:35:48;99498.41;;;3.72;88.47
84781;BME280;75011;50.086;19.886;2024-02-21T01:38:49;99503.25;;;3.62;88.35
84781;BME280;75011;50.086;19.886;2024-02-21T01:41:49;99503.63;;;3.52;88.54
84781;BME280;75011;50.086;19.886;2024-02-21T01:44:50;99491.69;;;3.42;88.51
84781;BME280;75011;50.086;19.886;2024-02-21T01:47:50;99495.94;;;3.36;88.58
84781;BME280;75011;50.086;19.886;2024-02-21T01:50:54;99502.88;;;3.37;88.85
84781;BME280;75011;50.086;19.886;2024-02-21T01:53:55;99493.91;;;3.38;89.07
84781;BME280;75011;50.086;19.886;2024-02-21T01:56:56;99487.19;;;3.42;89.20
84781;BME280;75011;50.086;19.886;2024-02-21T01:59:57;99492.50;;;3.42;89.04
84781;BME280;75011;50.086;19.886;2024-02-21T02:02:58;99489.25;;;3.47;89.16
84781;BME280;75011;50.086;19.886;2024-02-21T02:06:00;99481.91;;;3.49;89.31
84781;BME280;75011;50.086;19.886;2024-02-21T02:09:00;99488.06;;;3.49;89.31
84781;BME280;75011;50.086;19.886;2024-02-21T02:12:01;99479.28;;;3.55;89.31
84781;BME280;75011;50.086;19.886;2024-02-21T02:15:03;99489.53;;;3.58;89.61
84781;BME280;75011;50.086;19.886;2024-02-21T02:18:04;99482.38;;;3.59;89.29
84781;BME280;75011;50.086;19.886;2024-02-21T02:21:10;99487.09;;;3.63;89.45
84781;BME280;75011;50.086;19.886;2024-02-21T02:24:15;99476.47;;;3.63;89.43
84781;BME280;75011;50.086;19.886;2024-02-21T02:27:16;99477.31;;;3.64;89.45
84781;BME280;75011;50.086;19.886;2024-02-21T02:30:16;99471.78;;;3.65;89.48
84781;BME280;75011;50.086;19.886;2024-02-21T02:33:17;99485.50;;;3.69;89.21
84781;BME280;75011;50.086;19.886;2024-02-21T02:36:17;99464.03;;;3.64;89.29
84781;BME280;75011;50.086;19.886;2024-02-21T02:39:19;99474.88;;;3.69;89.18
84781;BME280;75011;50.086;19.886;2024-02-21T02:42:20;99466.91;;;3.69;88.98
84781;BME280;75011;50.086;19.886;2024-02-21T02:45:21;99458.75;;;3.70;89.21
84781;BME280;75011;50.086;19.886;2024-02-21T02:48:22;99461.81;;;3.74;89.50
84781;BME280;75011;50.086;19.886;2024-02-21T02:51:22;99471.06;;;3.78;89.13
84781;BME280;75011;50.086;19.886;2024-02-21T02:54:24;99464.72;;;3.79;89.23
84781;BME280;75011;50.086;19.886;2024-02-21T02:57:24;99468.19;;;3.79;89.70
84781;BME280;75011;50.086;19.886;2024-02-21T03:00:25;99463.31;;;3.83;88.97
84781;BME280;75011;50.086;19.886;2024-02-21T03:03:25;99459.84;;;3.83;89.14
84781;BME280;75011;50.086;19.886;2024-02-21T03:06:26;99460.44;;;3.78;89.39
84781;BME280;75011;50.086;19.886;2024-02-21T03:09:28;99456.34;;;3.75;89.29
84781;BME280;75011;50.086;19.886;2024-02-21T03:12:28;99451.59;;;3.71;89.48
84781;BME280;75011;50.086;19.886;2024-02-21T03:15:29;99442.38;;;3.67;89.22
84781;BME280;75011;50.086;19.886;2024-02-21T03:18:29;99447.69;;;3.67;88.86
84781;BME280;75011;50.086;19.886;2024-02-21T03:21:30;99447.06;;;3.65;89.23
84781;BME280;75011;50.086;19.886;2024-02-21T03:24:32;99438.66;;;3.61;89.08
84781;BME280;75011;50.086;19.886;2024-02-21T03:27:32;99451.13;;;3.61;89.06
84781;BME280;75011;50.086;19.886;2024-02-21T03:30:33;99448.06;;;3.64;89.07
84781;BME280;75011;50.086;19.886;2024-02-21T03:33:34;99451.94;;;3.61;89.29
84781;BME280;75011;50.086;19.886;2024-02-21T03:36:34;99464.03;;;3.64;89.28
84781;BME280;75011;50.086;19.886;2024-02-21T03:39:36;99451.19;;;3.67;89.71
84781;BME280;75011;50.086;19.886;2024-02-21T03:42:37;99453.44;;;3.70;88.96
84781;BME280;75011;50.086;19.886;2024-02-21T03:45:37;99450.38;;;3.73;89.11
84781;BME280;75011;50.086;19.886;2024-02-21T03:48:38;99437.28;;;3.72;89.24
84781;BME280;75011;50.086;19.886;2024-02-21T03:51:38;99435.47;;;3.72;88.99
84781;BME280;75011;50.086;19.886;2024-02-21T03:54:40;99433.56;;;3.66;89.21
84781;BME280;75011;50.086;19.886;2024-02-21T03:57:41;99443.97;;;3.61;89.41
84781;BME280;75011;50.086;19.886;2024-02-21T04:00:41;99449.88;;;3.57;89.16
84781;BME280;75011;50.086;19.886;2024-02-21T04:03:42;99439.84;;;3.52;89.07
84781;BME280;75011;50.086;19.886;2024-02-21T04:06:46;99435.53;;;3.51;89.27
84781;BME280;75011;50.086;19.886;2024-02-21T04:09:48;99440.66;;;3.53;89.49
84781;BME280;75011;50.086;19.886;2024-02-21T04:12:49;99446.16;;;3.51;89.18
84781;BME280;75011;50.086;19.886;2024-02-21T04:15:49;99441.63;;;3.45;89.37
84781;BME280;75011;50.086;19.886;2024-02-21T04:18:50;99441.22;;;3.42;89.54
84781;BME280;75011;50.086;19.886;2024-02-21T04:21:50;99433.41;;;3.40;89.30
84781;BME280;75011;50.086;19.886;2024-02-21T04:24:52;99425.63;;;3.32;89.38
84781;BME280;75011;50.086;19.886;2024-02-21T04:27:53;99416.59;;;3.27;89.54
84781;BME280;75011;50.086;19.886;2024-02-21T04:30:53;99417.00;;;3.24;89.47
84781;BME280;75011;50.086;19.886;2024-02-21T04:33:53;99408.41;;;3.22;89.42
84781;BME280;75011;50.086;19.886;2024-02-21T04:36:54;99427.00;;;3.22;89.64
84781;BME280;75011;50.086;19.886;2024-02-21T04:39:56;99425.34;;;3.21;89.66
84781;BME280;75011;50.086;19.886;2024-02-21T04:42:56;99420.03;;;3.21;89.57
84781;BME280;75011;50.086;19.886;2024-02-21T04:45:57;99414.56;;;3.29;89.88
84781;BME280;75011;50.086;19.886;2024-02-21T04:48:57;99423.59;;;3.34;89.80
84781;BME280;75011;50.086;19.886;2024-02-21T04:51:58;99411.78;;;3.43;89.74
84781;BME280;75011;50.086;19.886;2024-02-21T04:55:00;99417.16;;;3.50;89.85
84781;BME280;75011;50.086;19.886;2024-02-21T04:58:00;99419.84;;;3.56;89.68
84781;BME280;75011;50.086;19.886;2024-02-21T05:01:01;99422.09;;;3.59;89.70
84781;BME280;75011;50.086;19.886;2024-02-21T05:04:01;99429.03;;;3.60;89.66
84781;BME280;75011;50.086;19.886;2024-02-21T05:07:02;99419.84;;;3.63;89.61
84781;BME280;75011;50.086;19.886;2024-02-21T05:10:05;99411.72;;;3.64;89.29
84781;BME280;75011;50.086;19.886;2024-02-21T05:13:07;99410.50;;;3.67;89.25
84781;BME280;75011;50.086;19.886;2024-02-21T05:16:07;99414.59;;;3.69;89.34
84781;BME280;75011;50.086;19.886;2024-02-21T05:19:08;99413.97;;;3.67;89.60
84781;BME280;75011;50.086;19.886;2024-02-21T05:22:08;99418.06;;;3.70;89.11
84781;BME280;75011;50.086;19.886;2024-02-21T05:25:10;99415.41;;;3.70;89.38
84781;BME280;75011;50.086;19.886;2024-02-21T05:28:11;99415.41;;;3.70;89.29
84781;BME280;75011;50.086;19.886;2024-02-21T05:31:11;99417.03;;;3.71;89.33
84781;BME280;75011;50.086;19.886;2024-02-21T05:34:12;99419.91;;;3.76;89.23
84781;BME280;75011;50.086;19.886;2024-02-21T05:37:12;99426.69;;;3.78;89.45
84781;BME280;75011;50.086;19.886;2024-02-21T05:40:14;99419.31;;;3.74;89.31
84781;BME280;75011;50.086;19.886;2024-02-21T05:43:15;99421.34;;;3.72;89.41
84781;BME280;75011;50.086;19.886;2024-02-21T05:46:19;99424.59;;;3.67;89.47
84781;BME280;75011;50.086;19.886;2024-02-21T05:49:19;99426.81;;;3.64;89.89
84781;BME280;75011;50.086;19.886;2024-02-21T05:52:20;99423.72;;;3.60;89.79
84781;BME280;75011;50.086;19.886;2024-02-21T05:55:22;99414.16;;;3.66;90.15
84781;BME280;75011;50.086;19.886;2024-02-21T05:58:22;99408.44;;;3.69;90.21
84781;BME280;75011;50.086;19.886;2024-02-21T06:01:23;99401.91;;;3.71;90.31
84781;BME280;75011;50.086;19.886;2024-02-21T06:04:23;99403.97;;;3.76;90.18
84781;BME280;75011;50.086;19.886;2024-02-21T06:07:24;99415.44;;;3.76;90.41
84781;BME280;75011;50.086;19.886;2024-02-21T06:10:25;99407.66;;;3.75;90.23
84781;BME280;75011;50.086;19.886;2024-02-21T06:13:26;99403.78;;;3.77;90.62
84781;BME280;75011;50.086;19.886;2024-02-21T06:16:27;99399.47;;;3.76;90.54
84781;BME280;75011;50.086;19.886;2024-02-21T06:19:27;99405.63;;;3.83;90.32
84781;BME280;75011;50.086;19.886;2024-02-21T06:22:30;99394.63;;;3.87;90.21
84781;BME280;75011;50.086;19.886;2024-02-21T06:25:32;99395.22;;;3.89;90.39
84781;BME280;75011;50.086;19.886;2024-02-21T06:28:32;99394.00;;;3.85;90.58
84781;BME280;75011;50.086;19.886;2024-02-21T06:31:34;99402.19;;;3.83;89.90
84781;BME280;75011;50.086;19.886;2024-02-21T06:34:35;99401.53;;;3.81;90.00
84781;BME280;75011;50.086;19.886;2024-02-21T06:37:35;99397.44;;;3.78;90.01
84781;BME280;75011;50.086;19.886;2024-02-21T06:40:37;99399.91;;;3.80;89.82
84781;BME280;75011;50.086;19.886;2024-02-21T06:43:38;99402.59;;;3.87;90.11
84781;BME280;75011;50.086;19.886;2024-02-21T06:46:38;99399.97;;;3.93;89.84
84781;BME280;75011;50.086;19.886;2024-02-21T06:49:39;99404.47;;;3.99;90.06
84781;BME280;75011;50.086;19.886;2024-02-21T06:52:39;99405.72;;;4.03;89.98
84781;BME280;75011;50.086;19.886;2024-02-21T06:55:41;99398.38;;;4.05;89.53
84781;BME280;75011;50.086;19.886;2024-02-21T06:58:42;99391.22;;;4.06;89.53
84781;BME280;75011;50.086;19.886;2024-02-21T07:01:45;99408.00;;;4.13;89.57
84781;BME280;75011;50.086;19.886;2024-02-21T07:04:45;99401.06;;;4.18;89.28
84781;BME280;75011;50.086;19.886;2024-02-21T07:07:46;99399.66;;;4.35;89.20
84781;BME280;75011;50.086;19.886;2024-02-21T07:10:48;99385.19;;;4.44;89.15
84781;BME280;75011;50.086;19.886;2024-02-21T07:13:48;99404.41;;;4.73;88.69
84781;BME280;75011;50.086;19.886;2024-02-21T07:16:49;99395.63;;;4.79;88.63
84781;BME280;75011;50.086;19.886;2024-02-21T07:19:49;99393.56;;;4.81;88.10
84781;BME280;75011;50.086;19.886;2024-02-21T07:22:50;99391.31;;;4.91;87.55
84781;BME280;75011;50.086;19.886;2024-02-21T07:25:52;99393.56;;;5.07;87.04
84781;BME280;75011;50.086;19.886;2024-02-21T07:28:52;99390.50;;;5.10;87.17
84781;BME280;75011;50.086;19.886;2024-02-21T07:31:53;99391.09;;;5.25;86.49
84781;BME280;75011;50.086;19.886;2024-02-21T07:34:53;99380.81;;;5.35;86.49
84781;BME280;75011;50.086;19.886;2024-02-21T07:37:54;99377.94;;;5.37;85.76
84781;BME280;75011;50.086;19.886;2024-02-21T07:40:55;99376.47;;;5.47;86.17
84781;BME280;75011;50.086;19.886;2024-02-21T07:43:56;99376.44;;;5.60;84.78
84781;BME280;75011;50.086;19.886;2024-02-21T07:46:56;99374.50;;;5.81;84.92
84781;BME280;75011;50.086;19.886;2024-02-21T07:49:57;99374.06;;;5.97;84.59
84781;BME280;75011;50.086;19.886;2024-02-21T07:52:57;99373.09;;;6.22;84.54
84781;BME280;75011;50.086;19.886;2024-02-21T07:55:59;99364.41;;;6.33;83.97
84781;BME280;75011;50.086;19.886;2024-02-21T07:59:00;99369.69;;;6.40;83.41
84781;BME280;75011;50.086;19.886;2024-02-21T08:02:00;99367.25;;;6.39;83.33
84781;BME280;75011;50.086;19.886;2024-02-21T08:05:01;99365.38;;;6.39;81.83
84781;BME280;75011;50.086;19.886;2024-02-21T08:08:02;99369.63;;;6.53;82.28
84781;BME280;75011;50.086;19.886;2024-02-21T08:11:04;99371.22;;;6.54;81.26
84781;BME280;75011;50.086;19.886;2024-02-21T08:14:05;99362.47;;;6.47;81.59
84781;BME280;75011;50.086;19.886;2024-02-21T08:17:05;99357.50;;;6.51;81.25
84781;BME280;75011;50.086;19.886;2024-02-21T08:20:06;99355.50;;;6.71;81.12
84781;BME280;75011;50.086;19.886;2024-02-21T08:23:07;99361.34;;;6.86;80.79
84781;BME280;75011;50.086;19.886;2024-02-21T08:26:09;99356.06;;;6.97;80.24
84781;BME280;75011;50.086;19.886;2024-02-21T08:29:09;99352.00;;;6.95;78.83
84781;BME280;75011;50.086;19.886;2024-02-21T08:32:10;99357.44;;;7.07;79.57
84781;BME280;75011;50.086;19.886;2024-02-21T08:35:10;99338.81;;;7.18;78.44
84781;BME280;75011;50.086;19.886;2024-02-21T08:38:11;99338.53;;;7.26;78.49
84781;BME280;75011;50.086;19.886;2024-02-21T08:41:13;99341.75;;;7.35;77.61
84781;BME280;75011;50.086;19.886;2024-02-21T08:44:14;99344.56;;;7.40;76.62
84781;BME280;75011;50.086;19.886;2024-02-21T08:47:15;99334.91;;;7.39;76.25
84781;BME280;75011;50.086;19.886;2024-02-21T08:50:15;99327.94;;;7.56;76.30
84781;BME280;75011;50.086;19.886;2024-02-21T08:53:16;99321.22;;;7.65;75.24
84781;BME280;75011;50.086;19.886;2024-02-21T08:56:17;99316.75;;;7.77;74.92
84781;BME280;75011;50.086;19.886;2024-02-21T08:59:18;99321.50;;;7.75;72.92
84781;BME280;75011;50.086;19.886;2024-02-21T09:02:18;99314.22;;;7.64;72.74
84781;BME280;75011;50.086;19.886;2024-02-21T09:05:19;99319.00;;;7.62;73.46
84781;BME280;75011;50.086;19.886;2024-02-21T09:08:19;99313.94;;;7.54;73.23
84781;BME280;75011;50.086;19.886;2024-02-21T09:11:21;99327.41;;;7.47;73.87
84781;BME280;75011;50.086;19.886;2024-02-21T09:14:22;99320.75;;;7.38;72.83
84781;BME280;75011;50.086;19.886;2024-02-21T09:17:22;99318.13;;;7.32;72.84
84781;BME280;75011;50.086;19.886;2024-02-21T09:20:23;99307.19;;;7.33;73.04
84781;BME280;75011;50.086;19.886;2024-02-21T09:23:24;99331.06;;;7.53;72.28
84781;BME280;75011;50.086;19.886;2024-02-21T09:26:26;99329.63;;;7.69;71.30
84781;BME280;75011;50.086;19.886;2024-02-21T09:29:26;99314.16;;;7.71;70.64
84781;BME280;75011;50.086;19.886;2024-02-21T09:32:27;99326.72;;;8.00;70.86
84781;BME280;75011;50.086;19.886;2024-02-21T09:35:27;99336.72;;;8.22;70.77
84781;BME280;75011;50.086;19.886;2024-02-21T09:38:28;99326.91;;;8.16;68.65
84781;BME280;75011;50.086;19.886;2024-02-21T09:41:30;99321.94;;;8.20;69.19
84781;BME280;75011;50.086;19.886;2024-02-21T09:44:33;99324.53;;;8.27;69.83
84781;BME280;75011;50.086;19.886;2024-02-21T09:47:44;99330.19;;;8.18;68.49
84781;BME280;75011;50.086;19.886;2024-02-21T09:50:51;99319.78;;;8.10;68.23
84781;BME280;75011;50.086;19.886;2024-02-21T09:53:54;99321.63;;;8.28;67.83
84781;BME280;75011;50.086;19.886;2024-02-21T09:56:56;99321.91;;;8.50;67.96
84781;BME280;75011;50.086;19.886;2024-02-21T09:59:57;99334.34;;;8.44;66.85
84781;BME280;75011;50.086;19.886;2024-02-21T10:02:58;99320.25;;;8.37;67.36
84781;BME280;75011;50.086;19.886;2024-02-21T10:05:59;99319.06;;;8.33;66.30
84781;BME280;75011;50.086;19.886;2024-02-21T10:08:59;99305.13;;;8.43;67.06
84781;BME280;75011;50.086;19.886;2024-02-21T10:12:09;99303.97;;;8.50;66.28
84781;BME280;75011;50.086;19.886;2024-02-21T10:15:10;99303.75;;;8.52;65.86
84781;BME280;75011;50.086;19.886;2024-02-21T10:18:10;99299.69;;;8.61;65.72
84781;BME280;75011;50.086;19.886;2024-02-21T10:21:11;99291.41;;;8.74;65.72
84781;BME280;75011;50.086;19.886;2024-02-21T10:24:12;99304.94;;;8.79;65.73
84781;BME280;75011;50.086;19.886;2024-02-21T10:27:14;99281.31;;;8.76;64.63
84781;BME280;75011;50.086;19.886;2024-02-21T10:30:14;99286.06;;;8.85;65.40
84781;BME280;75011;50.086;19.886;2024-02-21T10:33:15;99292.72;;;8.83;64.93
84781;BME280;75011;50.086;19.886;2024-02-21T10:36:16;99278.75;;;8.81;64.78
84781;BME280;75011;50.086;19.886;2024-02-21T10:39:16;99276.41;;;8.96;64.93
84781;BME280;75011;50.086;19.886;2024-02-21T10:42:21;99272.03;;;9.18;64.64
84781;BME280;75011;50.086;19.886;2024-02-21T10:45:23;99270.25;;;9.35;63.75
84781;BME280;75011;50.086;19.886;2024-02-21T10:48:33;99259.97;;;9.44;63.52
84781;BME280;75011;50.086;19.886;2024-02-21T10:51:43;99280.06;;;9.70;62.16
84781;BME280;75011;50.086;19.886;2024-02-21T10:54:45;99266.84;;;9.80;62.54
84781;BME280;75011;50.086;19.886;2024-02-21T10:57:49;99265.38;;;9.72;61.99
84781;BME280;75011;50.086;19.886;2024-02-21T11:00:50;99261.44;;;9.63;61.81
84781;BME280;75011;50.086;19.886;2024-02-21T11:03:53;99256.22;;;9.57;61.68
84781;BME280;75011;50.086;19.886;2024-02-21T11:06:54;99248.63;;;9.54;62.58
84781;BME280;75011;50.086;19.886;2024-02-21T11:09:55;99245.47;;;9.57;61.57
84781;BME280;75011;50.086;19.886;2024-02-21T11:13:07;99236.75;;;9.49;60.55
84781;BME280;75011;50.086;19.886;2024-02-21T11:16:08;99231.28;;;9.44;61.32
84781;BME280;75011;50.086;19.886;2024-02-21T11:19:19;99229.34;;;9.40;61.62
84781;BME280;75011;50.086;19.886;2024-02-21T11:22:20;99219.50;;;9.45;61.64
84781;BME280;75011;50.086;19.886;2024-02-21T11:25:21;99229.03;;;9.53;61.46
84781;BME280;75011;50.086;19.886;2024-02-21T11:28:26;99227.03;;;9.60;61.04
84781;BME280;75011;50.086;19.886;2024-02-21T11:31:27;99222.16;;;9.57;62.28
84781;BME280;75011;50.086;19.886;2024-02-21T11:34:27;99215.94;;;9.68;61.76
84781;BME280;75011;50.086;19.886;2024-02-21T11:37:28;99225.56;;;9.81;62.02
84781;BME280;75011;50.086;19.886;2024-02-21T11:40:29;99219.06;;;9.93;61.91
84781;BME280;75011;50.086;19.886;2024-02-21T11:43:31;99205.31;;;9.90;61.05
84781;BME280;75011;50.086;19.886;2024-02-21T11:46:31;99191.00;;;10.01;61.37
84781;BME280;75011;50.086;19.886;2024-02-21T11:49:37;99212.56;;;10.06;61.40
84781;BME280;75011;50.086;19.886;2024-02-21T11:52:38;99196.81;;;9.81;61.71
84781;BME280;75011;50.086;19.886;2024-02-21T11:55:38;99197.72;;;9.87;61.51
84781;BME280;75011;50.086;19.886;2024-02-21T11:58:40;99191.06;;;9.89;61.64
84781;BME280;75011;50.086;19.886;2024-02-21T12:01:40;99182.63;;;9.81;60.87
84781;BME280;75011;50.086;19.886;2024-02-21T12:04:41;99184.59;;;9.74;61.02
84781;BME280;75011;50.086;19.886;2024-02-21T12:07:42;99179.97;;;9.69;60.67
84781;BME280;75011;50.086;19.886;2024-02-21T12:10:44;99179.97;;;9.69;60.63
84781;BME280;75011;50.086;19.886;2024-02-21T12:13:46;99176.09;;;9.77;60.88
84781;BME280;75011;50.086;19.886;2024-02-21T12:16:46;99172.84;;;9.91;60.93
84781;BME280;75011;50.086;19.886;2024-02-21T12:19:47;99166.56;;;10.14;60.31
84781;BME280;75011;50.086;19.886;2024-02-21T12:22:49;99161.41;;;10.29;59.20
84781;BME280;75011;50.086;19.886;2024-02-21T12:25:51;99165.56;;;10.37;59.77
84781;BME280;75011;50.086;19.886;2024-02-21T12:28:53;99185.97;;;10.38;59.60
84781;BME280;75011;50.086;19.886;2024-02-21T12:31:53;99161.66;;;10.28;59.49
84781;BME280;75011;50.086;19.886;2024-02-21T12:34:54;99163.94;;;10.19;60.08
84781;BME280;75011;50.086;19.886;2024-02-21T12:37:54;99167.97;;;10.05;58.47
84781;BME280;75011;50.086;19.886;2024-02-21T12:40:55;99170.88;;;9.87;57.89
84781;BME280;75011;50.086;19.886;2024-02-21T12:43:57;99176.41;;;9.80;57.01
84781;BME280;75011;50.086;19.886;2024-02-21T12:46:57;99170.97;;;9.75;58.35
84781;BME280;75011;50.086;19.886;2024-02-21T12:49:58;99153.88;;;9.65;58.36
84781;BME280;75011;50.086;19.886;2024-02-21T12:52:58;99158.50;;;9.53;58.86
84781;BME280;75011;50.086;19.886;2024-02-21T12:55:59;99164.16;;;9.39;58.91
84781;BME280;75011;50.086;19.886;2024-02-21T12:59:01;99152.06;;;9.25;59.18
84781;BME280;75011;50.086;19.886;2024-02-21T13:02:01;99153.25;;;9.18;60.54
84781;BME280;75011;50.086;19.886;2024-02-21T13:05:02;99154.59;;;9.04;60.65
84781;BME280;75011;50.086;19.886;2024-02-21T13:08:03;99138.63;;;9.09;61.18
84781;BME280;75011;50.086;19.886;2024-02-21T13:11:04;99140.56;;;9.13;60.46
84781;BME280;75011;50.086;19.886;2024-02-21T13:14:07;99141.16;;;9.15;60.74
84781;BME280;75011;50.086;19.886;2024-02-21T13:17:07;99143.25;;;9.13;60.00
84781;BME280;75011;50.086;19.886;2024-02-21T13:20:09;99134.28;;;9.08;60.24
84781;BME280;75011;50.086;19.886;2024-02-21T13:23:09;99134.41;;;9.13;60.81
84781;BME280;75011;50.086;19.886;2024-02-21T13:26:10;99132.25;;;8.98;61.80
84781;BME280;75011;50.086;19.886;2024-02-21T13:29:12;99136.13;;;8.79;62.68
84781;BME280;75011;50.086;19.886;2024-02-21T13:32:13;99127.28;;;8.67;63.77
84781;BME280;75011;50.086;19.886;2024-02-21T13:35:13;99123.47;;;8.63;64.00
84781;BME280;75011;50.086;19.886;2024-02-21T13:38:14;99119.50;;;8.65;64.10
84781;BME280;75011;50.086;19.886;2024-02-21T13:41:14;99111.13;;;8.73;63.85
84781;BME280;75011;50.086;19.886;2024-02-21T13:44:16;99117.97;;;8.81;64.31
84781;BME280;75011;50.086;19.886;2024-02-21T13:47:17;99107.91;;;8.88;63.76
84781;BME280;75011;50.086;19.886;2024-02-21T13:50:18;99115.47;;;8.91;63.65
84781;BME280;75011;50.086;19.886;2024-02-21T13:53:22;99111.88;;;8.85;64.39
84781;BME280;75011;50.086;19.886;2024-02-21T13:56:23;99112.47;;;8.88;64.87
84781;BME280;75011;50.086;19.886;2024-02-21T13:59:24;99102.56;;;8.88;64.41
84781;BME280;75011;50.086;19.886;2024-02-21T14:02:25;99102.00;;;8.86;64.35
84781;BME280;75011;50.086;19.886;2024-02-21T14:05:25;99092.56;;;8.72;65.30
84781;BME280;75011;50.086;19.886;2024-02-21T14:08:26;99099.94;;;8.65;66.11
84781;BME280;75011;50.086;19.886;2024-02-21T14:11:26;99096.38;;;8.48;65.53
84781;BME280;75011;50.086;19.886;2024-02-21T14:14:28;99101.16;;;8.34;66.40
84781;BME280;75011;50.086;19.886;2024-02-21T14:17:29;99101.72;;;8.13;66.95
84781;BME280;75011;50.086;19.886;2024-02-21T14:20:29;99112.19;;;7.91;68.44
84781;BME280;75011;50.086;19.886;2024-02-21T14:23:30;99104.25;;;7.73;68.94
84781;BME280;75011;50.086;19.886;2024-02-21T14:26:30;99098.22;;;7.66;69.16
84781;BME280;75011;50.086;19.886;2024-02-21T14:29:32;99099.94;;;7.60;69.75
84781;BME280;75011;50.086;19.886;2024-02-21T14:32:33;99097.97;;;7.56;69.87
84781;BME280;75011;50.086;19.886;2024-02-21T14:35:33;99094.78;;;7.47;70.78
84781;BME280;75011;50.086;19.886;2024-02-21T14:38:34;99083.41;;;7.40;71.48
84781;BME280;75011;50.086;19.886;2024-02-21T14:41:34;99081.03;;;7.32;72.10
84781;BME280;75011;50.086;19.886;2024-02-21T14:44:36;99078.56;;;7.19;72.66
84781;BME280;75011;50.086;19.886;2024-02-21T14:47:37;99073.78;;;7.10;73.65
84781;BME280;75011;50.086;19.886;2024-02-21T14:50:37;99066.22;;;7.07;73.88
84781;BME280;75011;50.086;19.886;2024-02-21T14:53:38;99063.63;;;7.00;74.80
84781;BME280;75011;50.086;19.886;2024-02-21T14:56:38;99056.53;;;6.94;75.73
84781;BME280;75011;50.086;19.886;2024-02-21T14:59:41;99058.13;;;6.95;75.57
84781;BME280;75011;50.086;19.886;2024-02-21T15:02:42;99049.09;;;6.96;75.73
84781;BME280;75011;50.086;19.886;2024-02-21T15:05:42;99052.72;;;7.02;76.37
84781;BME280;75011;50.086;19.886;2024-02-21T15:08:43;99044.34;;;6.98;76.27
84781;BME280;75011;50.086;19.886;2024-02-21T15:11:43;99045.72;;;7.01;75.93
84781;BME280;75011;50.086;19.886;2024-02-21T15:14:45;99044.91;;;7.00;76.77
84781;BME280;75011;50.086;19.886;2024-02-21T15:17:46;99048.66;;;6.99;76.83
84781;BME280;75011;50.086;19.886;2024-02-21T15:20:46;99048.19;;;7.02;76.80
84781;BME280;75011;50.086;19.886;2024-02-21T15:23:46;99037.84;;;7.06;76.59
84781;BME280;75011;50.086;19.886;2024-02-21T15:26:47;99032.06;;;7.09;76.81
84781;BME280;75011;50.086;19.886;2024-02-21T15:29:49;99033.69;;;7.10;77.34
84781;BME280;75011;50.086;19.886;2024-02-21T15:32:49;99023.47;;;7.18;76.86
84781;BME280;75011;50.086;19.886;2024-02-21T15:35:50;99026.16;;;7.18;76.43
84781;BME280;75011;50.086;19.886;2024-02-21T15:38:50;99012.78;;;7.07;77.03
84781;BME280;75011;50.086;19.886;2024-02-21T15:41:51;99012.66;;;7.02;77.25
84781;BME280;75011;50.086;19.886;2024-02-21T15:44:52;99006.72;;;7.00;77.07
84781;BME280;75011;50.086;19.886;2024-02-21T15:47:53;99012.06;;;7.00;77.51
84781;BME280;75011;50.086;19.886;2024-02-21T15:50:53;99010.41;;;6.98;77.69
84781;BME280;75011;50.086;19.886;2024-02-21T15:53:54;99012.72;;;6.95;77.55
84781;BME280;75011;50.086;19.886;2024-02-21T15:56:54;99020.53;;;6.96;77.63
84781;BME280;75011;50.086;19.886;2024-02-21T15:59:56;99019.13;;;6.94;77.55